Главная страница
METAR-TAF:

METAR-TAF

Аэропорты :

Казвин, Иран

широта: 36-15N, долгота: 050-00E, высота над уровнем моря: 1278 м

Текущие метеонаблюдения

Эта сводка был подготовлена 12 минут назад, в 13:00 UTC
Ветер 6 Узел от северо-восточный
Температура 6°C
Влажность 65%
Давление 1012 hPa
Видимость 10 км и более
небольшая облачность на высоте 3000 фута, Кучево-дождевые.
Рассеянная облачность на высоте 19000 фута

METAR: OIIK 081300Z 04006KT 9999 FEW030CB BKN190 06/M00 Q1012

Время: 16:42 (13:12 UTC)


TAF: отсутствует

Метеонаблюдения и прогнозы для более 4000 аэропортов (сводки METAR и TAF).

Имеющиеся станции представлены на карте желтыми и красными точками.

Чтобы увидеть название станции, наведите на нее мышь.

Затем щелкните, чтобы увидеть метеонаблюдения и метеопрогнозы.

Управление картой: чтобы увеличить масштаб, щелкните зеленые кнопки с черным крестиком; чтобы уменьшить масштаб, щелкните зеленую кнопку с тире; для просмотра соседних карт щелкайте зеленые стрелки.


METAR-TAF: